Time;durP1;ratioP1;P1;durP2;ratioP2;P2;SDS_P1;SDS_P2;PMS_P1;PMS_P2;Temp;Humidity;BMP_temperature;BMP_pressure;BME280_temperature;BME280_humidity;BME280_pressure;Samples;Min_cycle;Max_cycle;Signal;HPM_P1;HPM_P2
2023/07/02 00:01:35;;;;;;;20.52;8.15;;;;;;;;;;5029642;28;20032;-66
2023/07/02 00:04:01;;;;;;;18.95;8.93;;;;;;;;;;5025696;28;20064;-66
2023/07/02 00:06:27;;;;;;;20.20;8.93;;;;;;;;;;5028686;28;20045;-66
2023/07/02 00:08:53;;;;;;;18.27;8.88;;;;;;;;;;5024978;28;20495;-66
2023/07/02 00:11:19;;;;;;;18.75;8.43;;;17.40;99.90;;;;;;5028623;28;20068;-66
2023/07/02 00:13:44;;;;;;;24.25;9.27;;;17.30;99.90;;;;;;5021814;28;20653;-66
2023/07/02 00:16:10;;;;;;;15.80;7.88;;;17.20;99.70;;;;;;5026260;28;20117;-66
2023/07/02 00:18:36;;;;;;;19.90;9.30;;;17.20;99.90;;;;;;5025220;28;20101;-66
2023/07/02 00:21:04;;;;;;;22.05;9.93;;;17.20;99.90;;;;;;5024425;28;20053;-66
2023/07/02 00:23:30;;;;;;;23.10;10.13;;;17.10;99.90;;;;;;5021886;28;20048;-66
2023/07/02 00:25:57;;;;;;;21.67;8.52;;;17.10;99.90;;;;;;5020327;28;20037;-66
2023/07/02 00:28:23;;;;;;;12.73;7.55;;;17.10;99.90;;;;;;5017231;28;20103;-66
2023/07/02 00:30:49;;;;;;;16.20;8.00;;;17.10;99.90;;;;;;5025577;28;20046;-66
2023/07/02 00:33:15;;;;;;;20.48;9.80;;;17.10;99.90;;;;;;5026911;28;20043;-66
2023/07/02 00:35:41;;;;;;;22.20;9.48;;;17.00;99.90;;;;;;5028528;28;20041;-66
2023/07/02 00:38:07;;;;;;;15.88;8.63;;;17.00;99.90;;;;;;5025740;28;20029;-66
2023/07/02 00:40:33;;;;;;;20.90;8.50;;;17.00;99.90;;;;;;5025228;28;20044;-66
2023/07/02 00:42:58;;;;;;;25.00;9.10;;;17.00;99.90;;;;;;5023769;28;20041;-66
2023/07/02 00:45:27;;;;;;;24.17;9.70;;;17.00;99.90;;;;;;5024992;28;20048;-66
2023/07/02 00:47:54;;;;;;;20.52;9.45;;;17.00;99.90;;;;;;5024527;28;20084;-66
2023/07/02 00:50:22;;;;;;;20.40;9.40;;;;;;;;;;5020831;28;20080;-67
2023/07/02 00:52:48;;;;;;;27.60;9.70;;;;;;;;;;5038432;28;20045;-66
2023/07/02 00:55:15;;;;;;;21.90;10.93;;;;;;;;;;5023101;28;20091;-66
2023/07/02 00:57:46;;;;;;;23.98;10.93;;;;;;;;;;5021763;28;20048;-66
2023/07/02 01:00:13;;;;;;;17.25;8.70;;;;;;;;;;5024302;28;20063;-66
2023/07/02 01:02:43;;;;;;;21.50;8.93;;;;;;;;;;5022701;28;20619;-65
2023/07/02 01:05:14;;;;;;;19.73;10.50;;;16.90;99.90;;;;;;5022782;28;20102;-66
2023/07/02 01:07:40;;;;;;;18.05;9.43;;;;;;;;;;5026822;28;20080;-66
2023/07/02 01:10:07;;;;;;;23.58;9.02;;;;;;;;;;5022459;28;20061;-66
2023/07/02 01:12:33;;;;;;;22.52;9.77;;;;;;;;;;5026720;28;20131;-66
2023/07/02 01:15:01;;;;;;;24.00;9.95;;;;;;;;;;5025568;28;20752;-66
2023/07/02 01:17:28;;;;;;;20.13;9.48;;;;;;;;;;5027121;28;20388;-66
2023/07/02 01:19:58;;;;;;;19.27;8.98;;;;;;;;;;5042444;28;20123;-66
2023/07/02 01:22:28;;;;;;;15.45;9.38;;;;;;;;;;5031523;28;20737;-66
2023/07/02 01:24:55;;;;;;;18.30;8.75;;;;;;;;;;5028081;28;20046;-66
2023/07/02 01:27:21;;;;;;;20.08;10.23;;;;;;;;;;5029684;28;20527;-66
2023/07/02 01:29:51;;;;;;;18.30;8.95;;;;;;;;;;5032481;28;20048;-66
2023/07/02 01:32:17;;;;;;;24.48;9.70;;;;;;;;;;5027382;28;20124;-66
2023/07/02 01:34:49;;;;;;;25.05;10.30;;;;;;;;;;5033415;28;20033;-66
2023/07/02 01:37:16;;;;;;;26.98;10.05;;;;;;;;;;5048510;28;20459;-66
2023/07/02 01:39:42;;;;;;;23.58;10.80;;;;;;;;;;5029627;28;20033;-66
2023/07/02 01:42:14;;;;;;;17.13;9.52;;;;;;;;;;5029225;28;20037;-66
2023/07/02 01:44:40;;;;;;;19.95;9.88;;;;;;;;;;5030380;28;20518;-66
2023/07/02 01:47:06;;;;;;;20.70;9.32;;;;;;;;;;5028888;28;20045;-66
2023/07/02 01:49:33;;;;;;;22.77;9.65;;;;;;;;;;5028065;28;20454;-66
2023/07/02 01:51:59;;;;;;;23.40;9.50;;;;;;;;;;5029761;28;20059;-66
2023/07/02 01:54:29;;;;;;;18.02;8.25;;;;;;;;;;5022928;28;20042;-66
2023/07/02 01:56:55;;;;;;;29.42;11.18;;;;;;;;;;5020070;28;20052;-66
2023/07/02 01:59:21;;;;;;;23.77;10.57;;;;;;;;;;5013120;28;20065;-66
2023/07/02 02:01:47;;;;;;;20.30;8.93;;;;;;;;;;5031541;28;20116;-66
2023/07/02 02:04:14;;;;;;;22.65;9.90;;;;;;;;;;5029667;28;20045;-66
2023/07/02 02:06:40;;;;;;;18.75;8.88;;;;;;;;;;5031714;28;20068;-66
2023/07/02 02:09:07;;;;;;;21.70;9.02;;;;;;;;;;5027331;28;20046;-66
2023/07/02 02:11:34;;;;;;;17.35;9.25;;;;;;;;;;5030917;28;20053;-67
2023/07/02 02:14:03;;;;;;;21.80;9.20;;;;;;;;;;5030011;28;20114;-66
2023/07/02 02:16:29;;;;;;;20.88;10.50;;;;;;;;;;5028993;28;20059;-66
2023/07/02 02:18:56;;;;;;;18.95;9.27;;;;;;;;;;5028892;28;20061;-66
2023/07/02 02:21:22;;;;;;;23.65;9.80;;;;;;;;;;5031489;28;20048;-66
2023/07/02 02:23:49;;;;;;;18.13;9.65;;;;;;;;;;5026072;28;20042;-65
2023/07/02 02:26:15;;;;;;;20.52;8.95;;;;;;;;;;5028246;28;20049;-65
2023/07/02 02:28:42;;;;;;;24.98;9.90;;;;;;;;;;5037577;28;20045;-65
2023/07/02 02:31:08;;;;;;;21.90;10.73;;;;;;;;;;5030817;28;20037;-65
2023/07/02 02:33:35;;;;;;;21.65;10.30;;;;;;;;;;5026082;28;20041;-66
2023/07/02 02:36:04;;;;;;;27.88;10.05;;;;;;;;;;5024981;28;20699;-66
2023/07/02 02:38:30;;;;;;;28.25;10.05;;;;;;;;;;5041781;28;20045;-66
2023/07/02 02:40:56;;;;;;;19.63;9.18;;;;;;;;;;5029405;28;20143;-66
2023/07/02 02:43:22;;;;;;;22.65;9.63;;;;;;;;;;5022315;28;20451;-65
2023/07/02 02:45:49;;;;;;;20.23;9.35;;;;;;;;;;5031282;28;20431;-65
2023/07/02 02:48:15;;;;;;;21.17;7.95;;;;;;;;;;5025594;28;20044;-66
2023/07/02 02:50:42;;;;;;;17.02;9.45;;;;;;;;;;5025853;28;20033;-65
2023/07/02 02:53:09;;;;;;;25.50;10.07;;;;;;;;;;5030274;28;20103;-65
2023/07/02 02:55:36;;;;;;;23.75;9.40;;;;;;;;;;5024593;28;20041;-65
2023/07/02 02:58:02;;;;;;;21.27;8.73;;;;;;;;;;5016915;28;20417;-66
2023/07/02 03:00:28;;;;;;;30.83;9.73;;;;;;;;;;5028249;28;20048;-65
2023/07/02 03:02:55;;;;;;;19.15;9.10;;;;;;;;;;5028790;28;20041;-65
2023/07/02 03:05:22;;;;;;;22.02;9.10;;;;;;;;;;5021891;28;20057;-65
2023/07/02 03:07:48;;;;;;;24.17;9.45;;;;;;;;;;5026105;28;20492;-65
2023/07/02 03:10:14;;;;;;;21.52;9.20;;;;;;;;;;5022921;28;20560;-66
2023/07/02 03:12:40;;;;;;;19.13;8.75;;;;;;;;;;5025110;28;20510;-65
2023/07/02 03:15:08;;;;;;;13.45;6.85;;;;;;;;;;5023492;28;20049;-65
2023/07/02 03:17:34;;;;;;;15.80;7.43;;;;;;;;;;5024026;28;20459;-65
2023/07/02 03:20:00;;;;;;;20.83;9.35;;;;;;;;;;5015168;28;20168;-65
2023/07/02 03:22:26;;;;;;;18.05;7.90;;;;;;;;;;5026421;28;20125;-65
2023/07/02 03:24:52;;;;;;;20.65;8.73;;;;;;;;;;5023461;28;20471;-65
2023/07/02 03:27:18;;;;;;;17.88;8.43;;;;;;;;;;5026795;28;20394;-65
2023/07/02 03:29:44;;;;;;;19.13;7.78;;;;;;;;;;5018784;28;20099;-65
2023/07/02 03:32:10;;;;;;;29.17;10.15;;;;;;;;;;5029408;28;20204;-65
2023/07/02 03:34:37;;;;;;;17.77;6.78;;;;;;;;;;5023571;28;20037;-65
2023/07/02 03:37:03;;;;;;;14.40;6.95;;;;;;;;;;5026819;28;20034;-65
2023/07/02 03:39:29;;;;;;;15.43;7.93;;;;;;;;;;5026969;28;20041;-65
2023/07/02 03:41:55;;;;;;;19.20;7.93;;;;;;;;;;5026234;28;20436;-65
2023/07/02 03:44:21;;;;;;;19.88;9.35;;;;;;;;;;5024370;28;20171;-65
2023/07/02 03:46:47;;;;;;;17.95;8.98;;;;;;;;;;5023914;28;20347;-65
2023/07/02 03:49:13;;;;;;;22.05;8.48;;;;;;;;;;5025806;28;20041;-65
2023/07/02 03:51:40;;;;;;;19.52;9.57;;;;;;;;;;5025062;28;20490;-65
2023/07/02 03:54:06;;;;;;;17.45;8.15;;;;;;;;;;5023196;28;20037;-65
2023/07/02 03:56:32;;;;;;;17.73;8.75;;;;;;;;;;5024844;28;20159;-65
2023/07/02 03:58:58;;;;;;;19.10;8.30;;;;;;;;;;5025728;28;20117;-65
2023/07/02 04:01:24;;;;;;;18.13;7.70;;;;;;;;;;5028591;28;20063;-66
2023/07/02 04:03:51;;;;;;;17.23;7.22;;;;;;;;;;5026638;28;20064;-66
2023/07/02 04:06:17;;;;;;;19.05;10.05;;;;;;;;;;5019881;28;20057;-66
2023/07/02 04:08:44;;;;;;;16.02;8.32;;;;;;;;;;5026934;28;20065;-66
2023/07/02 04:11:10;;;;;;;15.80;7.32;;;;;;;;;;5025579;28;20081;-66
2023/07/02 04:13:37;;;;;;;19.00;7.93;;;;;;;;;;5028332;28;20532;-66
2023/07/02 04:16:03;;;;;;;24.05;7.07;;;;;;;;;;5028434;28;20081;-65
2023/07/02 04:18:29;;;;;;;18.00;7.32;;;;;;;;;;5022892;28;20033;-65
2023/07/02 04:20:55;;;;;;;17.05;7.38;;;;;;;;;;5017900;28;20586;-65
2023/07/02 04:23:21;;;;;;;13.63;6.38;;;;;;;;;;5019108;28;20069;-65
2023/07/02 04:25:47;;;;;;;15.18;6.68;;;;;;;;;;5020720;28;20288;-65
2023/07/02 04:28:14;;;;;;;16.55;6.30;;;;;;;;;;5017086;28;20036;-65
2023/07/02 04:30:41;;;;;;;13.57;5.68;;;;;;;;;;5021429;28;20621;-66
2023/07/02 04:33:08;;;;;;;11.23;5.85;;;;;;;;;;5021010;28;20041;-65
2023/07/02 04:35:34;;;;;;;13.60;5.68;;;;;;;;;;5026473;28;20517;-65
2023/07/02 04:38:01;;;;;;;17.60;6.53;;;;;;;;;;5018445;28;20026;-65
2023/07/02 04:40:27;;;;;;;16.33;5.80;;;;;;;;;;5008645;28;20124;-65
2023/07/02 04:42:59;;;;;;;17.58;7.13;;;;;;;;;;5022422;28;20046;-66
2023/07/02 04:45:26;;;;;;;12.20;6.30;;;;;;;;;;5018847;28;20410;-66
2023/07/02 04:47:52;;;;;;;13.43;6.53;;;;;;;;;;5018309;28;20084;-65
2023/07/02 04:50:18;;;;;;;10.95;5.65;;;;;;;;;;5015403;28;20053;-67
2023/07/02 04:52:45;;;;;;;13.68;6.07;;;;;;;;;;5018083;28;20037;-66
2023/07/02 04:55:11;;;;;;;14.52;6.80;;;;;;;;;;5016397;28;20037;-66
2023/07/02 04:57:37;;;;;;;13.68;6.13;;;;;;;;;;5020379;28;20045;-66
2023/07/02 05:00:05;;;;;;;17.55;6.85;;;;;;;;;;5029295;28;20387;-67
2023/07/02 05:02:32;;;;;;;16.63;6.40;;;;;;;;;;5019162;28;20143;-67
2023/07/02 05:04:58;;;;;;;11.68;6.25;;;;;;;;;;5028609;28;20392;-67
2023/07/02 05:07:24;;;;;;;17.23;6.82;;;;;;;;;;5021957;28;20046;-66
2023/07/02 05:09:52;;;;;;;19.45;6.97;;;;;;;;;;5025924;28;20054;-67
2023/07/02 05:12:18;;;;;;;12.43;5.93;;;;;;;;;;5033527;28;20092;-66
2023/07/02 05:14:45;;;;;;;11.13;5.63;;;;;;;;;;5021925;28;20380;-66
2023/07/02 05:17:11;;;;;;;12.13;6.40;;;;;;;;;;5022727;28;20037;-65
2023/07/02 05:19:37;;;;;;;10.82;6.15;;;;;;;;;;5023334;28;20037;-66
2023/07/02 05:22:03;;;;;;;12.27;6.03;;;;;;;;;;5043056;28;20076;-66
2023/07/02 05:24:29;;;;;;;19.35;6.72;;;;;;;;;;5026945;28;20038;-67
2023/07/02 05:26:56;;;;;;;16.08;6.30;;;;;;;;;;5022749;28;20045;-66
2023/07/02 05:29:22;;;;;;;12.32;5.57;;;;;;;;;;5025353;28;20046;-66
2023/07/02 05:31:48;;;;;;;12.10;5.72;;;;;;;;;;5028296;28;20042;-65
2023/07/02 05:34:14;;;;;;;12.77;5.82;;;;;;;;;;5020804;28;20037;-64
2023/07/02 05:36:40;;;;;;;13.50;6.60;;;;;;;;;;5030465;28;20053;-65
2023/07/02 05:39:06;;;;;;;13.35;5.30;;;;;;;;;;5024175;28;20186;-65
2023/07/02 05:41:32;;;;;;;20.52;7.57;;;;;;;;;;5026289;28;20064;-66
2023/07/02 05:43:58;;;;;;;13.05;6.07;;;;;;;;;;5030580;28;20060;-65
2023/07/02 05:46:25;;;;;;;13.70;7.43;;;;;;;;;;5028902;28;20049;-66
2023/07/02 05:48:51;;;;;;;14.65;6.85;;;;;;;;;;5029598;28;20131;-66
2023/07/02 05:51:21;;;;;;;16.02;6.72;;;;;;;;;;5030700;28;20529;-66
2023/07/02 05:53:47;;;;;;;24.17;7.25;;;;;;;;;;5026691;28;20040;-65
2023/07/02 05:56:14;;;;;;;16.20;7.13;;;;;;;;;;5026540;28;20034;-65
2023/07/02 05:58:40;;;;;;;12.20;6.45;;;;;;;;;;5027854;28;20041;-65
2023/07/02 06:01:06;;;;;;;16.55;6.50;;;;;;;;;;5024080;28;20038;-66
2023/07/02 06:03:33;;;;;;;12.30;5.63;;;;;;;;;;5031063;28;20044;-65
2023/07/02 06:05:59;;;;;;;11.77;5.18;;;;;;;;;;5025411;28;20040;-65
2023/07/02 06:08:25;;;;;;;10.15;5.47;;;;;;;;;;5044142;28;20052;-66
2023/07/02 06:10:51;;;;;;;13.40;5.53;;;;;;;;;;5042515;28;20053;-65
2023/07/02 06:13:17;;;;;;;10.70;5.07;;;;;;;;;;4996298;28;20049;-65
2023/07/02 06:15:44;;;;;;;15.18;4.72;;;;;;;;;;5027546;28;20037;-65
2023/07/02 06:18:10;;;;;;;14.48;5.65;;;;;;;;;;5026776;28;20045;-65
2023/07/02 06:20:36;;;;;;;12.95;4.75;;;;;;;;;;5025678;28;20060;-66
2023/07/02 06:23:02;;;;;;;15.55;4.85;;;;;;;;;;5029496;28;20045;-65
2023/07/02 06:25:28;;;;;;;9.13;3.85;;;;;;;;;;5025606;28;20051;-65
2023/07/02 06:27:58;;;;;;;9.55;4.30;;;;;;;;;;5020745;28;20038;-65
2023/07/02 06:30:24;;;;;;;11.18;4.93;;;;;;;;;;5023984;28;20091;-65
2023/07/02 06:32:50;;;;;;;9.23;4.65;;;;;;;;;;5028158;28;20045;-66
2023/07/02 06:35:16;;;;;;;10.85;4.38;;;;;;;;;;5027834;28;20059;-66
2023/07/02 06:37:43;;;;;;;10.13;4.00;;;;;;;;;;5024189;28;20034;-65
2023/07/02 06:40:09;;;;;;;9.25;4.20;;;;;;;;;;5022047;28;20033;-66
2023/07/02 06:42:35;;;;;;;13.90;5.60;;;;;;;;;;5039420;28;20041;-65
2023/07/02 06:45:02;;;;;;;11.35;4.50;;;;;;;;;;5025603;28;20052;-65
2023/07/02 06:47:28;;;;;;;9.02;4.88;;;;;;;;;;5023933;28;20459;-66
2023/07/02 06:49:54;;;;;;;14.45;5.40;;;;;;;;;;5020840;28;20052;-65
2023/07/02 06:52:21;;;;;;;15.40;4.78;;;;;;;;;;5022679;28;20506;-65
2023/07/02 06:54:47;;;;;;;7.57;4.43;;;;;;;;;;5025969;28;20041;-66
2023/07/02 06:57:13;;;;;;;8.95;5.10;;;;;;;;;;5016689;28;20056;-66
2023/07/02 06:59:39;;;;;;;14.25;5.25;;;;;;;;;;5020991;28;20041;-65
2023/07/02 07:02:06;;;;;;;8.93;3.33;;;;;;;;;;5037337;28;20172;-65
2023/07/02 07:04:34;;;;;;;22.50;5.45;;;;;;;;;;5026024;28;20041;-66
2023/07/02 07:07:02;;;;;;;14.15;4.28;;;;;;;;;;5021856;28;20045;-65
2023/07/02 07:09:28;;;;;;;15.02;4.80;;;;;;;;;;5037777;28;20669;-66
2023/07/02 07:11:55;;;;;;;10.65;4.30;;;;;;;;;;5024428;28;20155;-65
2023/07/02 07:14:22;;;;;;;13.45;4.05;;;;;;;;;;5023388;28;20053;-64
2023/07/02 07:16:48;;;;;;;13.10;5.13;;;;;;;;;;5021629;28;20055;-65
2023/07/02 07:19:15;;;;;;;10.15;4.55;;;;;;;;;;5018259;28;20041;-65
2023/07/02 07:21:42;;;;;;;15.40;4.93;;;;;;;;;;5025202;28;20122;-66
2023/07/02 07:24:08;;;;;;;17.17;4.60;;;;;;;;;;5040258;28;20068;-65
2023/07/02 07:26:34;;;;;;;11.98;4.78;;;;;;;;;;5016965;28;20042;-65
2023/07/02 07:29:00;;;;;;;14.30;4.65;;;;;;;;;;5021737;28;20403;-65
2023/07/02 07:31:27;;;;;;;14.00;4.57;;;;;;;;;;5023166;28;20429;-65
2023/07/02 07:33:53;;;;;;;10.07;4.30;;;;;;;;;;5023344;28;20202;-65
2023/07/02 07:36:20;;;;;;;9.70;4.78;;;;;;;;;;5024557;28;20041;-65
2023/07/02 07:38:46;;;;;;;12.25;4.55;;;;;;;;;;5019415;28;20083;-65
2023/07/02 07:41:13;;;;;;;9.70;4.00;;;;;;;;;;5004545;28;20048;-65
2023/07/02 07:43:40;;;;;;;14.05;4.30;;;;;;;;;;5019808;28;20073;-65
2023/07/02 07:46:06;;;;;;;8.77;4.15;;;;;;;;;;5004063;28;20053;-65
2023/07/02 07:48:32;;;;;;;12.40;4.47;;;;;;;;;;5032141;28;20083;-65
2023/07/02 07:50:59;;;;;;;12.00;5.00;;;;;;;;;;5020948;28;20168;-64
2023/07/02 07:53:26;;;;;;;11.32;4.40;;;;;;;;;;5027856;28;20037;-65
2023/07/02 07:55:52;;;;;;;8.38;4.22;;;;;;;;;;5015888;28;20491;-65
2023/07/02 07:58:18;;;;;;;10.98;5.93;;;;;;;;;;5022663;28;20526;-65
2023/07/02 08:00:44;;;;;;;10.18;4.85;;;;;;;;;;5025202;28;20103;-65
2023/07/02 08:03:10;;;;;;;11.02;5.72;;;;;;;;;;5029285;28;20693;-65
2023/07/02 08:05:37;;;;;;;10.35;4.45;;;;;;;;;;5020876;28;20124;-65
2023/07/02 08:08:03;;;;;;;15.30;5.32;;;;;;;;;;5023025;28;20045;-65
2023/07/02 08:10:29;;;;;;;13.75;5.03;;;;;;;;;;5024669;28;20068;-65
2023/07/02 08:12:55;;;;;;;8.52;4.22;;;;;;;;;;5023561;28;20613;-64
2023/07/02 08:15:22;;;;;;;12.68;5.10;;;;;;;;;;5022036;28;20041;-66
2023/07/02 08:17:48;;;;;;;9.60;4.63;;;;;;;;;;5025100;28;20063;-66
2023/07/02 08:20:14;;;;;;;10.80;4.47;;;;;;;;;;5034639;28;20598;-66
2023/07/02 08:22:41;;;;;;;9.88;4.32;;;;;;;;;;5028288;28;20155;-65
2023/07/02 08:25:07;;;;;;;13.23;5.00;;;;;;;;;;5026981;28;20486;-65
2023/07/02 08:27:33;;;;;;;7.50;5.13;;;;;;;;;;5024759;28;20605;-65
2023/07/02 08:29:59;;;;;;;12.52;5.50;;;;;;;;;;5017419;28;20141;-66
2023/07/02 08:32:25;;;;;;;10.05;4.18;;;;;;;;;;5027041;28;20135;-66
2023/07/02 08:34:52;;;;;;;10.70;4.05;;;;;;;;;;5025204;28;20079;-65
2023/07/02 08:37:18;;;;;;;10.95;3.97;;;;;;;;;;5028800;28;20068;-66
2023/07/02 08:39:44;;;;;;;9.60;4.28;;;;;;;;;;5036180;28;20037;-66
2023/07/02 08:42:11;;;;;;;9.35;4.82;;;;;;;;;;5023789;28;20079;-66
2023/07/02 08:44:37;;;;;;;12.25;4.20;;;;;;;;;;5027819;28;20514;-65
2023/07/02 08:47:04;;;;;;;8.82;4.03;;;;;;;;;;5030501;28;20151;-65
2023/07/02 08:49:30;;;;;;;11.85;4.65;;;;;;;;;;5016859;28;20050;-66
2023/07/02 08:51:56;;;;;;;9.32;3.65;;;;;;;;;;5021655;28;20478;-65
2023/07/02 08:54:22;;;;;;;12.05;4.22;;;;;;;;;;5025448;28;20495;-65
2023/07/02 08:56:49;;;;;;;8.70;3.55;;;;;;;;;;5026033;28;20063;-66
2023/07/02 08:59:15;;;;;;;8.45;4.15;;;;;;;;;;5032073;28;20042;-65
2023/07/02 09:01:47;;;;;;;7.78;4.30;;;;;;;;;;5026092;28;20045;-66
2023/07/02 09:04:31;;;;;;;9.77;3.95;;;;;;;;;;5026666;28;20042;-65
2023/07/02 09:07:16;;;;;;;13.73;4.18;;;;;;;;;;5022990;28;20119;-65
2023/07/02 09:09:49;;;;;;;9.63;4.25;;;;;;;;;;5024557;28;20448;-65
2023/07/02 09:12:25;;;;;;;10.90;3.88;;;;;;;;;;5023522;28;20061;-65
2023/07/02 09:14:58;;;;;;;7.72;3.70;;;;;;;;;;5014048;28;20331;-66
2023/07/02 09:17:29;;;;;;;11.35;3.70;;;;;;;;;;5019335;28;20045;-65
2023/07/02 09:19:55;;;;;;;9.05;4.18;;;;;;;;;;5020474;28;20124;-66
2023/07/02 09:22:21;;;;;;;10.82;4.47;;;;;;;;;;5030355;28;20431;-65
2023/07/02 09:24:54;;;;;;;10.32;4.57;;;;;;;;;;5030862;28;20140;-65
2023/07/02 09:27:21;;;;;;;11.05;4.15;;;;;;;;;;5026550;28;20051;-66
2023/07/02 09:29:52;;;;;;;9.30;4.97;;;;;;;;;;5024127;28;20064;-65
2023/07/02 09:32:27;;;;;;;8.93;4.13;;;;;;;;;;5031402;28;20769;-66
2023/07/02 09:34:57;;;;;;;9.18;3.45;;;;;;;;;;5027390;28;20160;-66
2023/07/02 09:37:24;;;;;;;8.32;3.13;;;;;;;;;;5017594;28;20191;-65
2023/07/02 09:39:51;;;;;;;6.60;3.00;;;;;;;;;;5025561;28;20459;-66
2023/07/02 09:42:19;;;;;;;10.25;3.30;;;;;;;;;;5027282;28;20067;-66
2023/07/02 09:44:46;;;;;;;9.07;2.53;;;;;;;;;;5024356;28;20049;-66
2023/07/02 09:47:13;;;;;;;12.55;4.38;;;;;;;;;;5030447;28;20144;-65
2023/07/02 09:49:46;;;;;;;10.02;3.13;;;;;;;;;;5025559;28;20100;-65
2023/07/02 09:52:12;;;;;;;14.95;3.88;;;;;;;;;;5024519;28;20383;-66
2023/07/02 09:54:39;;;;;;;11.10;3.83;;;;;;;;;;5039087;28;20050;-65
2023/07/02 09:57:08;;;;;;;10.27;3.47;;;;;;;;;;5022831;28;20128;-66
2023/07/02 09:59:34;;;;;;;9.70;4.18;;;;;;;;;;5030342;28;20033;-66
2023/07/02 10:02:01;;;;;;;8.23;3.78;;;;;;;;;;5009063;28;20037;-65
2023/07/02 10:04:27;;;;;;;9.70;4.18;;;;;;;;;;5019155;28;20104;-66
2023/07/02 10:06:54;;;;;;;8.85;3.95;;;;;;;;;;5018333;28;20048;-65
2023/07/02 10:09:40;;;;;;;12.68;4.68;;;;;;;;;;5023172;28;20104;-65
2023/07/02 10:12:17;;;;;;;14.57;4.90;;;;;;;;;;5015639;28;20127;-65
2023/07/02 10:14:43;;;;;;;14.02;4.93;;;;;;;;;;5018493;28;20037;-65
2023/07/02 10:17:09;;;;;;;17.60;4.15;;;;;;;;;;5024606;28;20040;-65
2023/07/02 10:19:36;;;;;;;9.05;4.53;;;;;;;;;;5023663;28;20087;-64
2023/07/02 10:22:02;;;;;;;10.75;4.00;;;;;;;;;;5025521;28;20379;-64
2023/07/02 10:24:29;;;;;;;9.95;4.47;;;;;;;;;;5021191;28;20049;-64
2023/07/02 10:26:59;;;;;;;8.45;4.53;;;;;;;;;;5021461;28;20516;-65
2023/07/02 10:29:26;;;;;;;13.10;3.97;;;;;;;;;;5035914;28;20124;-65
2023/07/02 10:31:53;;;;;;;11.80;3.78;;;;;;;;;;5024440;28;20085;-65
2023/07/02 10:34:32;;;;;;;10.57;4.50;;;;;;;;;;5023448;28;20037;-65
2023/07/02 10:36:58;;;;;;;9.82;3.47;;;;;;;;;;5023090;28;20128;-65
2023/07/02 10:39:26;;;;;;;8.77;4.30;;;;;;;;;;5019868;28;20045;-65
2023/07/02 10:41:52;;;;;;;14.65;3.80;;;;;;;;;;5016724;28;20046;-65
2023/07/02 10:44:19;;;;;;;7.43;3.75;;;;;;;;;;5024609;28;20095;-65
2023/07/02 10:46:48;;;;;;;7.82;3.42;;;;;;;;;;5027190;28;20059;-65
2023/07/02 10:49:15;;;;;;;8.98;3.00;;;;;;;;;;5034390;28;20503;-65
2023/07/02 10:51:41;;;;;;;9.13;3.42;;;;;;;;;;5009192;28;20050;-65
2023/07/02 10:54:07;;;;;;;11.07;3.67;;;;;;;;;;5019142;28;20455;-65
2023/07/02 10:56:35;;;;;;;7.75;3.58;;;;;;;;;;5019807;28;20084;-65
2023/07/02 10:59:01;;;;;;;7.50;2.75;;;;;;;;;;5018076;28;20060;-65
2023/07/02 11:01:28;;;;;;;9.80;2.90;;;;;;;;;;5021637;28;20073;-65
2023/07/02 11:04:04;;;;;;;10.52;3.42;;;;;;;;;;5019256;28;20046;-65
2023/07/02 11:06:35;;;;;;;14.40;4.43;;;;;;;;;;5013572;28;20183;-65
2023/07/02 11:09:02;;;;;;;7.00;2.45;;;;;;;;;;5020095;28;20068;-65
2023/07/02 11:11:28;;;;;;;8.98;3.08;;;;;;;;;;5013465;28;20061;-65
2023/07/02 11:13:55;;;;;;;9.20;3.53;;;;;;;;;;5015620;28;20049;-65
2023/07/02 11:16:30;;;;;;;8.23;3.08;;;;;;;;;;5028634;28;20048;-65
2023/07/02 11:19:09;;;;;;;12.02;3.45;;;;;;;;;;5023683;28;20056;-66
2023/07/02 11:21:35;;;;;;;14.00;4.22;;;;;;;;;;5025039;28;20044;-65
2023/07/02 11:24:03;;;;;;;13.43;3.03;;;;;;;;;;5028146;28;20116;-66
2023/07/02 11:26:36;;;;;;;11.63;4.40;;;;;;;;;;5029113;28;20518;-65
2023/07/02 11:29:02;;;;;;;14.95;3.92;;;;;;;;;;5022567;28;20048;-65
2023/07/02 11:31:28;;;;;;;14.80;4.38;;;;;;;;;;5027271;28;20041;-65
2023/07/02 11:33:55;;;;;;;12.25;3.35;;;;;;;;;;5023071;28;20044;-65
2023/07/02 11:36:24;;;;;;;6.38;3.15;;;;;;;;;;5029883;28;20091;-65
2023/07/02 11:38:51;;;;;;;5.95;3.13;;;;;;;;;;5023228;28;20121;-65
2023/07/02 11:41:18;;;;;;;8.40;3.83;;;;;;;;;;5027827;28;20580;-65
2023/07/02 11:43:45;;;;;;;8.65;3.33;;;;;;;;;;5021160;28;20046;-65
2023/07/02 11:46:11;;;;;;;9.93;3.72;;;;;;;;;;5025103;28;20128;-65
2023/07/02 11:48:37;;;;;;;6.18;3.10;;;;;;;;;;5028020;28;20075;-65
2023/07/02 11:51:03;;;;;;;8.68;3.58;;;;;;;;;;5026459;28;20049;-65
2023/07/02 11:53:29;;;;;;;7.00;3.20;;;;;;;;;;5024715;28;20463;-65
2023/07/02 11:55:55;;;;;;;9.02;3.55;;;;;;;;;;5021958;28;20077;-65
2023/07/02 11:58:21;;;;;;;8.38;3.78;;;;;;;;;;5018469;28;20618;-65
2023/07/02 12:00:48;;;;;;;8.73;2.95;;;;;;;;;;5030677;28;20041;-68
2023/07/02 12:03:14;;;;;;;9.18;3.08;;;;;;;;;;5031145;28;20076;-66
2023/07/02 12:05:40;;;;;;;9.60;3.20;;;;;;;;;;5007003;28;20046;-65
2023/07/02 12:08:07;;;;;;;6.50;3.78;;;;;;;;;;5028239;28;20116;-65
2023/07/02 12:10:33;;;;;;;8.18;3.40;;;;;;;;;;5024314;28;20115;-66
2023/07/02 12:12:59;;;;;;;10.30;3.55;;;;;;;;;;5026980;28;20502;-65
2023/07/02 12:15:25;;;;;;;14.52;3.83;;;;;;;;;;5024735;28;20042;-66
2023/07/02 12:17:51;;;;;;;11.52;4.10;;;;;;;;;;5022118;28;20124;-66
2023/07/02 12:20:18;;;;;;;5.93;3.38;;;;;;;;;;5022773;28;20088;-65
2023/07/02 12:22:44;;;;;;;6.80;3.33;;;;;;;;;;5030233;28;20444;-66
2023/07/02 12:25:10;;;;;;;8.68;3.42;;;;;;;;;;5027416;28;20039;-65
2023/07/02 12:27:37;;;;;;;7.97;3.38;;;;;;;;;;5025294;28;20041;-66
2023/07/02 12:30:03;;;;;;;11.35;4.05;;;;;;;;;;5025101;28;20041;-65
2023/07/02 12:32:30;;;;;;;7.55;4.03;;;;;;;;;;5024364;28;20041;-66
2023/07/02 12:34:56;;;;;;;11.60;4.30;;;;;;;;;;5022349;28;20038;-66
2023/07/02 12:37:22;;;;;;;11.98;5.43;;;;;;;;;;5027321;28;20376;-66
2023/07/02 12:39:48;;;;;;;8.38;4.05;;;;;;;;;;5030963;28;20033;-66
2023/07/02 12:42:15;;;;;;;10.65;4.35;;;;;;;;;;5023413;28;20034;-66
2023/07/02 12:44:41;;;;;;;6.80;3.95;;;;;;;;;;5030557;28;20392;-66
2023/07/02 12:47:08;;;;;;;7.10;3.38;;;;;;;;;;5025604;28;20139;-67
2023/07/02 12:49:34;;;;;;;8.95;3.53;;;;;;;;;;5026023;28;20463;-66
2023/07/02 12:52:00;;;;;;;8.93;4.38;;;;;;;;;;5024219;28;20037;-66
2023/07/02 12:54:27;;;;;;;10.48;3.97;;;;;;;;;;5024472;28;20036;-66
2023/07/02 12:56:53;;;;;;;12.18;4.00;;;;;;;;;;5026116;28;20053;-66
2023/07/02 12:59:19;;;;;;;12.75;4.13;;;;;;;;;;5030919;28;20037;-66
2023/07/02 13:01:45;;;;;;;17.80;4.32;;;;;;;;;;5023604;28;20132;-66
2023/07/02 13:04:11;;;;;;;9.82;4.57;;;;;;;;;;5027194;28;20063;-66
2023/07/02 13:06:40;;;;;;;11.25;3.95;;;;;;;;;;5027670;28;20103;-65
2023/07/02 13:09:07;;;;;;;8.40;3.72;;;;;;;;;;5020570;28;20115;-66
2023/07/02 13:11:33;;;;;;;5.57;4.13;;;;;;;;;;5021758;28;20089;-66
2023/07/02 13:13:59;;;;;;;7.47;3.90;;;;;;;;;;5023226;28;20105;-66
2023/07/02 13:16:25;;;;;;;7.57;3.78;;;;;;;;;;5031010;28;20052;-66
2023/07/02 13:18:55;;;;;;;10.80;4.18;;;;;;;;;;5021292;28;20069;-66
2023/07/02 13:21:21;;;;;;;12.30;4.88;;;;;;;;;;5030296;28;20084;-66
2023/07/02 13:23:47;;;;;;;13.55;4.50;;;;;;;;;;5025588;28;20049;-65
2023/07/02 13:26:13;;;;;;;12.25;4.32;;;;;;;;;;5029628;28;20451;-66
2023/07/02 13:28:40;;;;;;;10.68;4.50;;;;;;;;;;5025590;28;20042;-66
2023/07/02 13:31:07;;;;;;;11.57;3.88;;;;;;;;;;5029150;28;20104;-66
2023/07/02 13:33:34;;;;;;;12.18;4.60;;;;;;;;;;5028106;28;20045;-66
2023/07/02 13:36:00;;;;;;;7.03;4.13;;;;;;;;;;5024855;28;20315;-66
2023/07/02 13:38:26;;;;;;;10.90;4.32;;;;;;;;;;5029547;28;20029;-66
2023/07/02 13:40:52;;;;;;;7.38;3.97;;;;;;;;;;5028280;28;20048;-66
2023/07/02 13:43:19;;;;;;;8.20;4.18;;;;;;;;;;5025472;28;20420;-66
2023/07/02 13:45:45;;;;;;;7.78;3.70;;;;;;;;;;5033550;28;20055;-66
2023/07/02 13:48:11;;;;;;;9.38;4.93;;;;;;;;;;5026521;28;20048;-66
2023/07/02 13:50:37;;;;;;;10.85;4.60;;;;;;;;;;5030463;28;20191;-66
2023/07/02 13:53:03;;;;;;;14.50;4.53;;;;;;;;;;5027773;28;20359;-66
2023/07/02 13:55:30;;;;;;;8.23;4.60;;;;;;;;;;5032232;28;20119;-66
2023/07/02 13:57:57;;;;;;;10.93;4.45;;;;;;;;;;5024326;28;20085;-65
2023/07/02 14:00:24;;;;;;;12.18;4.32;;;;;;;;;;5032536;28;20047;-66
2023/07/02 14:02:50;;;;;;;16.58;4.60;;;;;;;;;;5023616;28;20418;-66
2023/07/02 14:05:16;;;;;;;9.70;3.65;;;;;;;;;;5028360;28;20120;-66
2023/07/02 14:07:42;;;;;;;13.32;5.03;;;;;;;;;;5026958;28;20136;-66
2023/07/02 14:10:09;;;;;;;7.60;4.47;;;;;;;;;;5028482;28;20084;-65
2023/07/02 14:12:35;;;;;;;17.20;5.25;;;;;;;;;;5038138;28;20384;-65
2023/07/02 14:15:01;;;;;;;8.85;4.43;;;;;;;;;;5020037;28;20037;-66
2023/07/02 14:17:27;;;;;;;9.40;5.00;;;;;;;;;;5022452;28;20137;-65
2023/07/02 14:19:53;;;;;;;14.02;4.63;;;;;;;;;;5021273;28;20068;-64
2023/07/02 14:22:20;;;;;;;10.02;4.25;;;;;;;;;;5014067;28;20052;-65
2023/07/02 14:24:46;;;;;;;14.13;4.93;;;;;;;;;;5015984;28;20085;-66